Terminal Aerodrome Forecast
Issued by NWS Albany, NY

Home | Current Version | Previous Version | Text Only | Print | Product List | Glossary On
Versions: 1 2 3 4 5 6 7 8 9 10 11 12 13 14 15 16 17 18 19 20 21 22 23 24 25 26
000
FTUS41 KALY 121405 AAA
TAFGFL
TAF AMD
KGFL 121405Z 1214/1312 13004KT 1SM -SN VV010
      TEMPO 1214/1216 1/4SM +SN FZFG OVC005
     FM121700 16004KT 4SM -RASN OVC015
     FM122200 25009KT 3SM -RASN OVC020
     FM130200 27009KT P6SM VCSH BKN025=

USA.gov is the U.S. government's official web portal to all federal, state and local government web resources and services.